sensor_id;sensor_type;location;lat;lon;timestamp;P1;durP1;ratioP1;P2;durP2;ratioP2
77872;SDS011;67068;52.116;4.440;2023-02-17T00:02:15;4.13;;;1.17;;
77872;SDS011;67068;52.116;4.440;2023-02-17T00:04:40;4.40;;;1.27;;
77872;SDS011;67068;52.116;4.440;2023-02-17T00:07:06;5.67;;;1.30;;
77872;SDS011;67068;52.116;4.440;2023-02-17T00:09:31;4.90;;;1.00;;
77872;SDS011;67068;52.116;4.440;2023-02-17T00:11:56;5.33;;;1.17;;
77872;SDS011;67068;52.116;4.440;2023-02-17T00:14:21;4.90;;;1.30;;
77872;SDS011;67068;52.116;4.440;2023-02-17T00:16:46;4.73;;;1.27;;
77872;SDS011;67068;52.116;4.440;2023-02-17T00:19:12;5.93;;;1.23;;
77872;SDS011;67068;52.116;4.440;2023-02-17T00:21:54;5.45;;;1.08;;
77872;SDS011;67068;52.116;4.440;2023-02-17T00:24:20;5.15;;;1.10;;
77872;SDS011;67068;52.116;4.440;2023-02-17T00:26:45;5.38;;;1.20;;
77872;SDS011;67068;52.116;4.440;2023-02-17T00:29:10;4.40;;;1.10;;
77872;SDS011;67068;52.116;4.440;2023-02-17T00:31:36;5.57;;;1.47;;
77872;SDS011;67068;52.116;4.440;2023-02-17T00:34:01;4.47;;;1.23;;
77872;SDS011;67068;52.116;4.440;2023-02-17T00:36:26;4.80;;;1.10;;
77872;SDS011;67068;52.116;4.440;2023-02-17T00:38:52;4.00;;;1.07;;
77872;SDS011;67068;52.116;4.440;2023-02-17T00:41:18;5.80;;;1.00;;
77872;SDS011;67068;52.116;4.440;2023-02-17T00:43:43;5.28;;;1.20;;
77872;SDS011;67068;52.116;4.440;2023-02-17T00:46:08;4.72;;;1.20;;
77872;SDS011;67068;52.116;4.440;2023-02-17T00:48:34;6.27;;;1.30;;
77872;SDS011;67068;52.116;4.440;2023-02-17T00:50:59;6.57;;;1.23;;
77872;SDS011;67068;52.116;4.440;2023-02-17T00:53:24;5.17;;;1.10;;
77872;SDS011;67068;52.116;4.440;2023-02-17T00:55:49;4.07;;;1.20;;
77872;SDS011;67068;52.116;4.440;2023-02-17T00:58:15;4.85;;;1.20;;
77872;SDS011;67068;52.116;4.440;2023-02-17T01:00:40;5.70;;;1.20;;
77872;SDS011;67068;52.116;4.440;2023-02-17T01:03:05;4.63;;;1.20;;
77872;SDS011;67068;52.116;4.440;2023-02-17T01:05:31;4.93;;;1.30;;
77872;SDS011;67068;52.116;4.440;2023-02-17T01:07:56;5.30;;;1.33;;
77872;SDS011;67068;52.116;4.440;2023-02-17T01:10:21;6.70;;;1.50;;
77872;SDS011;67068;52.116;4.440;2023-02-17T01:12:47;5.60;;;1.40;;
77872;SDS011;67068;52.116;4.440;2023-02-17T01:15:12;5.27;;;1.27;;
77872;SDS011;67068;52.116;4.440;2023-02-17T01:17:37;5.50;;;1.57;;
77872;SDS011;67068;52.116;4.440;2023-02-17T01:20:02;5.60;;;1.30;;
77872;SDS011;67068;52.116;4.440;2023-02-17T01:22:28;5.03;;;1.42;;
77872;SDS011;67068;52.116;4.440;2023-02-17T01:24:53;6.13;;;1.60;;
77872;SDS011;67068;52.116;4.440;2023-02-17T01:27:18;7.03;;;1.47;;
77872;SDS011;67068;52.116;4.440;2023-02-17T01:29:44;6.67;;;1.30;;
77872;SDS011;67068;52.116;4.440;2023-02-17T01:32:10;5.88;;;1.50;;
77872;SDS011;67068;52.116;4.440;2023-02-17T01:34:36;5.07;;;1.13;;
77872;SDS011;67068;52.116;4.440;2023-02-17T01:37:01;4.13;;;1.10;;
77872;SDS011;67068;52.116;4.440;2023-02-17T01:39:26;5.83;;;1.43;;
77872;SDS011;67068;52.116;4.440;2023-02-17T01:41:51;4.23;;;1.23;;
77872;SDS011;67068;52.116;4.440;2023-02-17T01:44:21;6.73;;;1.63;;
77872;SDS011;67068;52.116;4.440;2023-02-17T01:46:47;5.30;;;1.20;;
77872;SDS011;67068;52.116;4.440;2023-02-17T01:49:27;5.32;;;1.13;;
77872;SDS011;67068;52.116;4.440;2023-02-17T01:51:57;4.53;;;1.25;;
77872;SDS011;67068;52.116;4.440;2023-02-17T01:54:26;4.20;;;1.20;;
77872;SDS011;67068;52.116;4.440;2023-02-17T01:59:20;5.45;;;1.20;;
77872;SDS011;67068;52.116;4.440;2023-02-17T02:01:46;5.18;;;1.20;;
77872;SDS011;67068;52.116;4.440;2023-02-17T02:04:11;5.57;;;1.40;;
77872;SDS011;67068;52.116;4.440;2023-02-17T02:06:39;4.35;;;1.13;;
77872;SDS011;67068;52.116;4.440;2023-02-17T02:09:06;5.63;;;1.52;;
77872;SDS011;67068;52.116;4.440;2023-02-17T02:11:33;6.03;;;1.48;;
77872;SDS011;67068;52.116;4.440;2023-02-17T02:13:58;5.75;;;1.13;;
77872;SDS011;67068;52.116;4.440;2023-02-17T02:21:39;6.38;;;1.33;;
77872;SDS011;67068;52.116;4.440;2023-02-17T02:24:10;5.15;;;1.30;;
77872;SDS011;67068;52.116;4.440;2023-02-17T02:34:09;4.95;;;1.48;;
77872;SDS011;67068;52.116;4.440;2023-02-17T02:36:40;5.88;;;1.40;;
77872;SDS011;67068;52.116;4.440;2023-02-17T02:39:15;5.30;;;1.42;;
77872;SDS011;67068;52.116;4.440;2023-02-17T02:41:42;5.50;;;1.55;;
77872;SDS011;67068;52.116;4.440;2023-02-17T02:44:08;4.93;;;1.13;;
77872;SDS011;67068;52.116;4.440;2023-02-17T02:46:34;4.63;;;1.33;;
77872;SDS011;67068;52.116;4.440;2023-02-17T02:49:00;4.97;;;1.40;;
77872;SDS011;67068;52.116;4.440;2023-02-17T02:54:17;5.50;;;1.52;;
77872;SDS011;67068;52.116;4.440;2023-02-17T02:56:48;4.25;;;1.13;;
77872;SDS011;67068;52.116;4.440;2023-02-17T03:01:44;5.20;;;1.40;;
77872;SDS011;67068;52.116;4.440;2023-02-17T03:04:14;5.95;;;1.50;;
77872;SDS011;67068;52.116;4.440;2023-02-17T03:07:04;5.40;;;1.20;;
77872;SDS011;67068;52.116;4.440;2023-02-17T03:09:27;6.30;;;1.40;;
77872;SDS011;67068;52.116;4.440;2023-02-17T03:11:56;5.53;;;1.27;;
77872;SDS011;67068;52.116;4.440;2023-02-17T03:14:22;4.93;;;1.48;;
77872;SDS011;67068;52.116;4.440;2023-02-17T03:16:47;5.50;;;1.60;;
77872;SDS011;67068;52.116;4.440;2023-02-17T03:19:14;5.60;;;1.45;;
77872;SDS011;67068;52.116;4.440;2023-02-17T03:24:14;4.88;;;1.10;;
77872;SDS011;67068;52.116;4.440;2023-02-17T03:26:39;5.07;;;1.33;;
77872;SDS011;67068;52.116;4.440;2023-02-17T03:29:04;4.53;;;1.30;;
77872;SDS011;67068;52.116;4.440;2023-02-17T03:31:30;5.63;;;1.30;;
77872;SDS011;67068;52.116;4.440;2023-02-17T03:33:55;4.90;;;1.13;;
77872;SDS011;67068;52.116;4.440;2023-02-17T03:36:20;6.07;;;1.50;;
77872;SDS011;67068;52.116;4.440;2023-02-17T03:38:46;4.63;;;1.23;;
77872;SDS011;67068;52.116;4.440;2023-02-17T03:41:11;4.72;;;1.23;;
77872;SDS011;67068;52.116;4.440;2023-02-17T03:43:36;6.00;;;1.30;;
77872;SDS011;67068;52.116;4.440;2023-02-17T03:46:02;4.20;;;1.13;;
77872;SDS011;67068;52.116;4.440;2023-02-17T03:48:27;5.70;;;1.40;;
77872;SDS011;67068;52.116;4.440;2023-02-17T03:50:52;5.40;;;1.20;;
77872;SDS011;67068;52.116;4.440;2023-02-17T03:53:17;6.07;;;1.80;;
77872;SDS011;67068;52.116;4.440;2023-02-17T03:55:42;6.43;;;1.27;;
77872;SDS011;67068;52.116;4.440;2023-02-17T03:58:08;7.33;;;1.60;;
77872;SDS011;67068;52.116;4.440;2023-02-17T04:00:33;4.63;;;1.13;;
77872;SDS011;67068;52.116;4.440;2023-02-17T04:02:58;6.30;;;1.48;;
77872;SDS011;67068;52.116;4.440;2023-02-17T04:05:24;6.15;;;1.30;;
77872;SDS011;67068;52.116;4.440;2023-02-17T04:07:49;6.03;;;1.40;;
77872;SDS011;67068;52.116;4.440;2023-02-17T04:10:14;5.87;;;1.47;;
77872;SDS011;67068;52.116;4.440;2023-02-17T04:12:39;5.07;;;1.40;;
77872;SDS011;67068;52.116;4.440;2023-02-17T04:15:05;5.63;;;1.40;;
77872;SDS011;67068;52.116;4.440;2023-02-17T04:17:30;4.25;;;1.20;;
77872;SDS011;67068;52.116;4.440;2023-02-17T04:19:55;3.87;;;1.27;;
77872;SDS011;67068;52.116;4.440;2023-02-17T04:22:20;4.67;;;1.40;;
77872;SDS011;67068;52.116;4.440;2023-02-17T04:24:46;6.10;;;1.53;;
77872;SDS011;67068;52.116;4.440;2023-02-17T04:27:11;5.43;;;1.50;;
77872;SDS011;67068;52.116;4.440;2023-02-17T04:29:36;5.23;;;1.30;;
77872;SDS011;67068;52.116;4.440;2023-02-17T04:32:01;4.93;;;1.33;;
77872;SDS011;67068;52.116;4.440;2023-02-17T04:34:27;5.73;;;1.47;;
77872;SDS011;67068;52.116;4.440;2023-02-17T04:36:52;5.67;;;1.50;;
77872;SDS011;67068;52.116;4.440;2023-02-17T04:39:17;6.37;;;1.40;;
77872;SDS011;67068;52.116;4.440;2023-02-17T04:41:42;6.17;;;1.43;;
77872;SDS011;67068;52.116;4.440;2023-02-17T04:44:08;5.50;;;1.50;;
77872;SDS011;67068;52.116;4.440;2023-02-17T04:46:33;4.77;;;1.40;;
77872;SDS011;67068;52.116;4.440;2023-02-17T04:48:58;8.10;;;1.70;;
77872;SDS011;67068;52.116;4.440;2023-02-17T04:51:23;7.60;;;1.40;;
77872;SDS011;67068;52.116;4.440;2023-02-17T04:53:48;8.50;;;1.47;;
77872;SDS011;67068;52.116;4.440;2023-02-17T04:56:14;6.10;;;1.33;;
77872;SDS011;67068;52.116;4.440;2023-02-17T04:58:39;4.63;;;1.13;;
77872;SDS011;67068;52.116;4.440;2023-02-17T05:01:04;9.03;;;1.50;;
77872;SDS011;67068;52.116;4.440;2023-02-17T05:03:29;6.43;;;1.43;;
77872;SDS011;67068;52.116;4.440;2023-02-17T05:05:55;4.63;;;1.20;;
77872;SDS011;67068;52.116;4.440;2023-02-17T05:08:20;5.97;;;1.53;;
77872;SDS011;67068;52.116;4.440;2023-02-17T05:10:46;7.38;;;1.70;;
77872;SDS011;67068;52.116;4.440;2023-02-17T05:13:11;5.60;;;1.50;;
77872;SDS011;67068;52.116;4.440;2023-02-17T05:15:36;5.67;;;1.33;;
77872;SDS011;67068;52.116;4.440;2023-02-17T05:18:01;6.28;;;1.35;;
77872;SDS011;67068;52.116;4.440;2023-02-17T05:20:27;5.53;;;1.30;;
77872;SDS011;67068;52.116;4.440;2023-02-17T05:22:52;6.22;;;1.50;;
77872;SDS011;67068;52.116;4.440;2023-02-17T05:25:17;6.63;;;1.60;;
77872;SDS011;67068;52.116;4.440;2023-02-17T05:27:42;5.57;;;1.20;;
77872;SDS011;67068;52.116;4.440;2023-02-17T05:30:08;7.83;;;1.33;;
77872;SDS011;67068;52.116;4.440;2023-02-17T05:32:33;5.75;;;1.30;;
77872;SDS011;67068;52.116;4.440;2023-02-17T05:34:58;5.03;;;1.40;;
77872;SDS011;67068;52.116;4.440;2023-02-17T05:37:23;5.53;;;1.50;;
77872;SDS011;67068;52.116;4.440;2023-02-17T05:39:49;7.03;;;1.77;;
77872;SDS011;67068;52.116;4.440;2023-02-17T05:42:14;8.67;;;1.87;;
77872;SDS011;67068;52.116;4.440;2023-02-17T05:44:39;7.60;;;1.70;;
77872;SDS011;67068;52.116;4.440;2023-02-17T05:47:04;7.50;;;1.65;;
77872;SDS011;67068;52.116;4.440;2023-02-17T05:49:30;8.47;;;1.43;;
77872;SDS011;67068;52.116;4.440;2023-02-17T05:51:55;5.60;;;1.60;;
77872;SDS011;67068;52.116;4.440;2023-02-17T05:54:20;6.37;;;1.70;;
77872;SDS011;67068;52.116;4.440;2023-02-17T05:56:45;7.60;;;1.60;;
77872;SDS011;67068;52.116;4.440;2023-02-17T05:59:11;8.67;;;1.73;;
77872;SDS011;67068;52.116;4.440;2023-02-17T06:01:36;7.50;;;1.43;;
77872;SDS011;67068;52.116;4.440;2023-02-17T06:04:01;7.22;;;1.48;;
77872;SDS011;67068;52.116;4.440;2023-02-17T06:06:27;8.17;;;2.27;;
77872;SDS011;67068;52.116;4.440;2023-02-17T06:08:52;6.97;;;1.60;;
77872;SDS011;67068;52.116;4.440;2023-02-17T06:11:17;9.57;;;1.70;;
77872;SDS011;67068;52.116;4.440;2023-02-17T06:13:42;6.10;;;1.47;;
77872;SDS011;67068;52.116;4.440;2023-02-17T06:16:07;7.77;;;1.87;;
77872;SDS011;67068;52.116;4.440;2023-02-17T06:18:33;8.33;;;1.80;;
77872;SDS011;67068;52.116;4.440;2023-02-17T06:20:58;8.80;;;1.70;;
77872;SDS011;67068;52.116;4.440;2023-02-17T06:23:24;6.35;;;1.50;;
77872;SDS011;67068;52.116;4.440;2023-02-17T06:25:49;7.18;;;1.77;;
77872;SDS011;67068;52.116;4.440;2023-02-17T06:28:14;7.50;;;1.57;;
77872;SDS011;67068;52.116;4.440;2023-02-17T06:30:39;7.63;;;1.70;;
77872;SDS011;67068;52.116;4.440;2023-02-17T06:33:05;7.03;;;1.53;;
77872;SDS011;67068;52.116;4.440;2023-02-17T06:35:30;7.93;;;1.90;;
77872;SDS011;67068;52.116;4.440;2023-02-17T06:37:55;8.77;;;1.67;;
77872;SDS011;67068;52.116;4.440;2023-02-17T06:40:20;6.57;;;1.70;;
77872;SDS011;67068;52.116;4.440;2023-02-17T06:42:46;6.00;;;1.37;;
77872;SDS011;67068;52.116;4.440;2023-02-17T06:45:11;6.67;;;1.33;;
77872;SDS011;67068;52.116;4.440;2023-02-17T06:47:36;7.47;;;1.37;;
77872;SDS011;67068;52.116;4.440;2023-02-17T06:50:01;7.87;;;1.80;;
77872;SDS011;67068;52.116;4.440;2023-02-17T06:52:27;6.80;;;1.63;;
77872;SDS011;67068;52.116;4.440;2023-02-17T06:54:52;9.03;;;1.60;;
77872;SDS011;67068;52.116;4.440;2023-02-17T06:57:17;9.10;;;1.90;;
77872;SDS011;67068;52.116;4.440;2023-02-17T06:59:42;9.23;;;2.23;;
77872;SDS011;67068;52.116;4.440;2023-02-17T07:02:11;7.83;;;1.80;;
77872;SDS011;67068;52.116;4.440;2023-02-17T07:04:37;9.63;;;2.28;;
77872;SDS011;67068;52.116;4.440;2023-02-17T07:07:02;11.52;;;2.30;;
77872;SDS011;67068;52.116;4.440;2023-02-17T07:09:27;13.47;;;2.00;;
77872;SDS011;67068;52.116;4.440;2023-02-17T07:11:52;8.87;;;2.20;;
77872;SDS011;67068;52.116;4.440;2023-02-17T07:14:17;10.70;;;2.60;;
77872;SDS011;67068;52.116;4.440;2023-02-17T07:16:43;9.40;;;2.03;;
77872;SDS011;67068;52.116;4.440;2023-02-17T07:19:08;9.57;;;2.20;;
77872;SDS011;67068;52.116;4.440;2023-02-17T07:21:33;10.17;;;1.80;;
77872;SDS011;67068;52.116;4.440;2023-02-17T07:23:58;8.20;;;1.90;;
77872;SDS011;67068;52.116;4.440;2023-02-17T07:26:24;10.63;;;2.20;;
77872;SDS011;67068;52.116;4.440;2023-02-17T07:28:49;7.03;;;1.80;;
77872;SDS011;67068;52.116;4.440;2023-02-17T07:31:15;7.50;;;1.90;;
77872;SDS011;67068;52.116;4.440;2023-02-17T07:33:41;7.10;;;1.90;;
77872;SDS011;67068;52.116;4.440;2023-02-17T07:36:07;6.80;;;1.75;;
77872;SDS011;67068;52.116;4.440;2023-02-17T07:38:32;8.57;;;1.90;;
77872;SDS011;67068;52.116;4.440;2023-02-17T07:41:02;9.30;;;1.93;;
77872;SDS011;67068;52.116;4.440;2023-02-17T07:43:27;7.80;;;2.00;;
77872;SDS011;67068;52.116;4.440;2023-02-17T07:45:53;6.50;;;2.20;;
77872;SDS011;67068;52.116;4.440;2023-02-17T07:48:18;8.77;;;2.00;;
77872;SDS011;67068;52.116;4.440;2023-02-17T07:50:43;7.70;;;1.87;;
77872;SDS011;67068;52.116;4.440;2023-02-17T07:53:09;6.77;;;1.70;;
77872;SDS011;67068;52.116;4.440;2023-02-17T07:55:34;7.33;;;1.93;;
77872;SDS011;67068;52.116;4.440;2023-02-17T07:57:59;8.85;;;2.20;;
77872;SDS011;67068;52.116;4.440;2023-02-17T08:00:24;9.30;;;2.30;;
77872;SDS011;67068;52.116;4.440;2023-02-17T08:02:50;9.23;;;2.37;;
77872;SDS011;67068;52.116;4.440;2023-02-17T08:05:15;8.47;;;2.20;;
77872;SDS011;67068;52.116;4.440;2023-02-17T08:07:40;8.17;;;2.20;;
77872;SDS011;67068;52.116;4.440;2023-02-17T08:10:06;8.73;;;2.20;;
77872;SDS011;67068;52.116;4.440;2023-02-17T08:12:49;8.38;;;1.90;;
77872;SDS011;67068;52.116;4.440;2023-02-17T08:15:33;8.38;;;1.67;;
77872;SDS011;67068;52.116;4.440;2023-02-17T08:17:58;7.93;;;2.25;;
77872;SDS011;67068;52.116;4.440;2023-02-17T08:20:24;7.78;;;1.90;;
77872;SDS011;67068;52.116;4.440;2023-02-17T08:22:50;9.98;;;2.72;;
77872;SDS011;67068;52.116;4.440;2023-02-17T08:25:15;8.03;;;1.80;;
77872;SDS011;67068;52.116;4.440;2023-02-17T08:27:40;7.38;;;1.83;;
77872;SDS011;67068;52.116;4.440;2023-02-17T08:30:06;8.37;;;1.87;;
77872;SDS011;67068;52.116;4.440;2023-02-17T08:32:31;6.03;;;1.83;;
77872;SDS011;67068;52.116;4.440;2023-02-17T08:34:56;7.87;;;1.80;;
77872;SDS011;67068;52.116;4.440;2023-02-17T08:37:21;7.77;;;1.90;;
77872;SDS011;67068;52.116;4.440;2023-02-17T08:39:47;9.47;;;2.00;;
77872;SDS011;67068;52.116;4.440;2023-02-17T08:42:12;7.67;;;1.90;;
77872;SDS011;67068;52.116;4.440;2023-02-17T08:44:38;7.32;;;1.90;;
77872;SDS011;67068;52.116;4.440;2023-02-17T08:47:03;9.40;;;2.30;;
77872;SDS011;67068;52.116;4.440;2023-02-17T08:49:29;9.73;;;2.03;;
77872;SDS011;67068;52.116;4.440;2023-02-17T08:51:56;7.35;;;2.33;;
77872;SDS011;67068;52.116;4.440;2023-02-17T08:54:22;7.10;;;1.70;;
77872;SDS011;67068;52.116;4.440;2023-02-17T08:56:47;7.78;;;1.83;;
77872;SDS011;67068;52.116;4.440;2023-02-17T08:59:12;7.10;;;1.80;;
77872;SDS011;67068;52.116;4.440;2023-02-17T09:01:38;8.13;;;1.70;;
77872;SDS011;67068;52.116;4.440;2023-02-17T09:04:04;6.20;;;1.58;;
77872;SDS011;67068;52.116;4.440;2023-02-17T09:06:31;8.55;;;2.13;;
77872;SDS011;67068;52.116;4.440;2023-02-17T09:08:57;6.68;;;1.70;;
77872;SDS011;67068;52.116;4.440;2023-02-17T09:11:22;5.23;;;1.63;;
77872;SDS011;67068;52.116;4.440;2023-02-17T09:13:47;7.30;;;1.80;;
77872;SDS011;67068;52.116;4.440;2023-02-17T09:16:12;5.97;;;1.53;;
77872;SDS011;67068;52.116;4.440;2023-02-17T09:18:38;6.53;;;1.73;;
77872;SDS011;67068;52.116;4.440;2023-02-17T09:21:10;7.10;;;1.90;;
77872;SDS011;67068;52.116;4.440;2023-02-17T09:23:36;7.13;;;1.58;;
77872;SDS011;67068;52.116;4.440;2023-02-17T09:26:05;7.45;;;1.80;;
77872;SDS011;67068;52.116;4.440;2023-02-17T09:28:31;4.53;;;1.30;;
77872;SDS011;67068;52.116;4.440;2023-02-17T09:30:56;6.95;;;1.80;;
77872;SDS011;67068;52.116;4.440;2023-02-17T09:33:21;6.83;;;1.80;;
77872;SDS011;67068;52.116;4.440;2023-02-17T09:35:46;7.73;;;1.80;;
77872;SDS011;67068;52.116;4.440;2023-02-17T09:38:13;6.35;;;1.50;;
77872;SDS011;67068;52.116;4.440;2023-02-17T09:40:44;6.63;;;1.70;;
77872;SDS011;67068;52.116;4.440;2023-02-17T09:43:18;6.63;;;1.90;;
77872;SDS011;67068;52.116;4.440;2023-02-17T09:45:46;7.65;;;1.85;;
77872;SDS011;67068;52.116;4.440;2023-02-17T09:48:14;7.32;;;1.92;;
77872;SDS011;67068;52.116;4.440;2023-02-17T09:50:44;6.22;;;1.48;;
77872;SDS011;67068;52.116;4.440;2023-02-17T09:53:22;7.38;;;1.80;;
77872;SDS011;67068;52.116;4.440;2023-02-17T09:55:50;5.88;;;1.52;;
77872;SDS011;67068;52.116;4.440;2023-02-17T09:58:17;7.20;;;1.90;;
77872;SDS011;67068;52.116;4.440;2023-02-17T10:00:45;7.20;;;1.88;;
77872;SDS011;67068;52.116;4.440;2023-02-17T10:03:14;10.13;;;2.13;;
77872;SDS011;67068;52.116;4.440;2023-02-17T10:05:48;6.82;;;1.80;;
77872;SDS011;67068;52.116;4.440;2023-02-17T10:13:43;6.30;;;1.60;;
77872;SDS011;67068;52.116;4.440;2023-02-17T10:16:20;7.18;;;1.88;;
77872;SDS011;67068;52.116;4.440;2023-02-17T10:18:53;7.05;;;1.73;;
77872;SDS011;67068;52.116;4.440;2023-02-17T10:21:24;6.25;;;1.67;;
77872;SDS011;67068;52.116;4.440;2023-02-17T10:23:51;7.13;;;1.88;;
77872;SDS011;67068;52.116;4.440;2023-02-17T10:29:09;7.15;;;1.75;;
77872;SDS011;67068;52.116;4.440;2023-02-17T10:34:52;6.75;;;1.52;;
77872;SDS011;67068;52.116;4.440;2023-02-17T10:39:59;5.43;;;1.38;;
77872;SDS011;67068;52.116;4.440;2023-02-17T10:42:44;5.20;;;1.55;;
77872;SDS011;67068;52.116;4.440;2023-02-17T10:47:44;9.00;;;2.33;;
77872;SDS011;67068;52.116;4.440;2023-02-17T10:50:20;7.77;;;1.80;;
77872;SDS011;67068;52.116;4.440;2023-02-17T10:52:45;9.93;;;2.25;;
77872;SDS011;67068;52.116;4.440;2023-02-17T10:57:37;11.53;;;2.17;;
77872;SDS011;67068;52.116;4.440;2023-02-17T11:00:06;9.68;;;2.00;;
77872;SDS011;67068;52.116;4.440;2023-02-17T11:02:34;8.05;;;2.00;;
77872;SDS011;67068;52.116;4.440;2023-02-17T11:09:59;6.85;;;1.83;;
77872;SDS011;67068;52.116;4.440;2023-02-17T11:12:38;8.55;;;1.90;;
77872;SDS011;67068;52.116;4.440;2023-02-17T11:15:07;10.20;;;2.03;;
77872;SDS011;67068;52.116;4.440;2023-02-17T11:22:36;9.32;;;1.80;;
77872;SDS011;67068;52.116;4.440;2023-02-17T11:25:06;10.43;;;2.40;;
77872;SDS011;67068;52.116;4.440;2023-02-17T11:27:31;9.32;;;2.10;;
77872;SDS011;67068;52.116;4.440;2023-02-17T11:30:07;6.93;;;1.97;;
77872;SDS011;67068;52.116;4.440;2023-02-17T11:32:33;8.70;;;1.73;;
77872;SDS011;67068;52.116;4.440;2023-02-17T11:34:58;8.57;;;2.00;;
77872;SDS011;67068;52.116;4.440;2023-02-17T11:37:30;5.70;;;1.60;;
77872;SDS011;67068;52.116;4.440;2023-02-17T11:39:56;7.63;;;1.58;;
77872;SDS011;67068;52.116;4.440;2023-02-17T11:42:27;8.60;;;2.10;;
77872;SDS011;67068;52.116;4.440;2023-02-17T11:44:53;8.55;;;2.10;;
77872;SDS011;67068;52.116;4.440;2023-02-17T12:10:11;9.20;;;2.20;;
77872;SDS011;67068;52.116;4.440;2023-02-17T12:18:21;11.93;;;2.40;;
77872;SDS011;67068;52.116;4.440;2023-02-17T12:23:29;10.70;;;2.67;;
77872;SDS011;67068;52.116;4.440;2023-02-17T12:28:39;8.05;;;1.67;;
77872;SDS011;67068;52.116;4.440;2023-02-17T12:33:59;7.65;;;1.83;;
77872;SDS011;67068;52.116;4.440;2023-02-17T12:36:30;8.00;;;1.60;;
77872;SDS011;67068;52.116;4.440;2023-02-17T12:38:57;10.65;;;2.47;;
77872;SDS011;67068;52.116;4.440;2023-02-17T12:46:25;9.07;;;1.55;;
77872;SDS011;67068;52.116;4.440;2023-02-17T12:51:29;8.50;;;2.20;;
77872;SDS011;67068;52.116;4.440;2023-02-17T12:53:58;8.02;;;1.63;;
77872;SDS011;67068;52.116;4.440;2023-02-17T12:57:28;10.98;;;2.08;;
77872;SDS011;67068;52.116;4.440;2023-02-17T12:59:25;7.30;;;1.52;;
77872;SDS011;67068;52.116;4.440;2023-02-17T13:04:21;7.88;;;1.80;;
77872;SDS011;67068;52.116;4.440;2023-02-17T13:06:52;9.63;;;1.80;;
77872;SDS011;67068;52.116;4.440;2023-02-17T13:14:44;7.95;;;1.73;;
77872;SDS011;67068;52.116;4.440;2023-02-17T13:17:28;7.18;;;1.60;;
77872;SDS011;67068;52.116;4.440;2023-02-17T13:22:31;9.52;;;1.73;;
77872;SDS011;67068;52.116;4.440;2023-02-17T13:24:57;9.88;;;1.73;;
77872;SDS011;67068;52.116;4.440;2023-02-17T13:29:58;7.85;;;1.55;;
77872;SDS011;67068;52.116;4.440;2023-02-17T13:32:28;7.38;;;1.48;;
77872;SDS011;67068;52.116;4.440;2023-02-17T13:35:04;8.68;;;1.60;;
77872;SDS011;67068;52.116;4.440;2023-02-17T13:39:58;6.93;;;1.90;;
77872;SDS011;67068;52.116;4.440;2023-02-17T13:44:55;7.63;;;1.63;;
77872;SDS011;67068;52.116;4.440;2023-02-17T13:47:23;8.45;;;1.50;;
77872;SDS011;67068;52.116;4.440;2023-02-17T13:49:52;6.57;;;1.50;;
77872;SDS011;67068;52.116;4.440;2023-02-17T13:52:19;7.80;;;1.88;;
77872;SDS011;67068;52.116;4.440;2023-02-17T13:54:55;8.73;;;1.75;;
77872;SDS011;67068;52.116;4.440;2023-02-17T13:57:22;7.82;;;1.63;;
77872;SDS011;67068;52.116;4.440;2023-02-17T13:59:47;7.20;;;1.60;;
77872;SDS011;67068;52.116;4.440;2023-02-17T14:02:17;7.80;;;1.77;;
77872;SDS011;67068;52.116;4.440;2023-02-17T14:04:43;7.30;;;1.42;;
77872;SDS011;67068;52.116;4.440;2023-02-17T14:07:08;11.43;;;2.83;;
77872;SDS011;67068;52.116;4.440;2023-02-17T14:09:34;10.63;;;2.30;;
77872;SDS011;67068;52.116;4.440;2023-02-17T14:12:00;10.37;;;2.37;;
77872;SDS011;67068;52.116;4.440;2023-02-17T14:14:36;11.10;;;1.80;;
77872;SDS011;67068;52.116;4.440;2023-02-17T14:17:06;8.77;;;2.00;;
77872;SDS011;67068;52.116;4.440;2023-02-17T14:19:41;10.15;;;2.28;;
77872;SDS011;67068;52.116;4.440;2023-02-17T14:22:20;10.85;;;1.90;;
77872;SDS011;67068;52.116;4.440;2023-02-17T14:24:46;11.02;;;2.42;;
77872;SDS011;67068;52.116;4.440;2023-02-17T14:27:21;10.77;;;1.80;;
77872;SDS011;67068;52.116;4.440;2023-02-17T14:29:46;8.33;;;1.73;;
77872;SDS011;67068;52.116;4.440;2023-02-17T14:37:32;9.70;;;1.60;;
77872;SDS011;67068;52.116;4.440;2023-02-17T14:40:01;11.27;;;2.75;;
77872;SDS011;67068;52.116;4.440;2023-02-17T14:42:26;8.00;;;1.85;;
77872;SDS011;67068;52.116;4.440;2023-02-17T14:44:51;9.07;;;2.00;;
77872;SDS011;67068;52.116;4.440;2023-02-17T14:47:16;10.93;;;2.23;;
77872;SDS011;67068;52.116;4.440;2023-02-17T14:49:42;8.87;;;1.67;;
77872;SDS011;67068;52.116;4.440;2023-02-17T14:52:14;8.73;;;1.30;;
77872;SDS011;67068;52.116;4.440;2023-02-17T14:54:41;8.13;;;1.40;;
77872;SDS011;67068;52.116;4.440;2023-02-17T14:57:07;10.83;;;2.10;;
77872;SDS011;67068;52.116;4.440;2023-02-17T14:59:32;8.55;;;1.40;;
77872;SDS011;67068;52.116;4.440;2023-02-17T15:01:57;10.70;;;1.93;;
77872;SDS011;67068;52.116;4.440;2023-02-17T15:04:23;8.60;;;1.63;;
77872;SDS011;67068;52.116;4.440;2023-02-17T15:06:49;7.90;;;1.60;;
77872;SDS011;67068;52.116;4.440;2023-02-17T15:09:16;9.02;;;2.00;;
77872;SDS011;67068;52.116;4.440;2023-02-17T15:11:42;8.52;;;1.70;;
77872;SDS011;67068;52.116;4.440;2023-02-17T15:14:12;9.48;;;1.50;;
77872;SDS011;67068;52.116;4.440;2023-02-17T15:16:38;6.57;;;1.58;;
77872;SDS011;67068;52.116;4.440;2023-02-17T15:19:04;11.80;;;1.70;;
77872;SDS011;67068;52.116;4.440;2023-02-17T15:21:30;7.67;;;1.43;;
77872;SDS011;67068;52.116;4.440;2023-02-17T15:23:56;10.27;;;1.95;;
77872;SDS011;67068;52.116;4.440;2023-02-17T15:26:22;9.32;;;1.98;;
77872;SDS011;67068;52.116;4.440;2023-02-17T15:28:47;8.80;;;1.60;;
77872;SDS011;67068;52.116;4.440;2023-02-17T15:31:13;9.13;;;1.98;;
77872;SDS011;67068;52.116;4.440;2023-02-17T15:33:40;9.30;;;1.40;;
77872;SDS011;67068;52.116;4.440;2023-02-17T15:36:05;9.90;;;1.77;;
77872;SDS011;67068;52.116;4.440;2023-02-17T15:38:30;11.75;;;1.52;;
77872;SDS011;67068;52.116;4.440;2023-02-17T15:40:55;9.47;;;1.53;;
77872;SDS011;67068;52.116;4.440;2023-02-17T15:43:22;8.50;;;1.88;;
77872;SDS011;67068;52.116;4.440;2023-02-17T15:45:48;9.10;;;1.50;;
77872;SDS011;67068;52.116;4.440;2023-02-17T15:50:42;9.35;;;1.40;;
77872;SDS011;67068;52.116;4.440;2023-02-17T15:53:07;10.33;;;1.77;;
77872;SDS011;67068;52.116;4.440;2023-02-17T15:55:32;7.53;;;1.53;;
77872;SDS011;67068;52.116;4.440;2023-02-17T15:58:00;9.70;;;1.92;;
77872;SDS011;67068;52.116;4.440;2023-02-17T16:00:27;10.75;;;1.90;;
77872;SDS011;67068;52.116;4.440;2023-02-17T16:02:53;9.65;;;1.80;;
77872;SDS011;67068;52.116;4.440;2023-02-17T16:05:19;9.63;;;1.50;;
77872;SDS011;67068;52.116;4.440;2023-02-17T16:07:45;8.57;;;1.42;;
77872;SDS011;67068;52.116;4.440;2023-02-17T16:10:11;11.93;;;2.00;;
77872;SDS011;67068;52.116;4.440;2023-02-17T16:12:37;9.35;;;2.17;;
77872;SDS011;67068;52.116;4.440;2023-02-17T16:15:03;8.82;;;1.30;;
77872;SDS011;67068;52.116;4.440;2023-02-17T16:17:29;11.98;;;1.92;;
77872;SDS011;67068;52.116;4.440;2023-02-17T16:19:54;11.43;;;2.70;;
77872;SDS011;67068;52.116;4.440;2023-02-17T16:22:19;13.67;;;3.30;;
77872;SDS011;67068;52.116;4.440;2023-02-17T16:24:45;11.60;;;2.23;;
77872;SDS011;67068;52.116;4.440;2023-02-17T16:27:13;13.10;;;2.13;;
77872;SDS011;67068;52.116;4.440;2023-02-17T16:29:39;9.77;;;2.00;;
77872;SDS011;67068;52.116;4.440;2023-02-17T16:32:05;8.30;;;1.95;;
77872;SDS011;67068;52.116;4.440;2023-02-17T16:34:30;7.95;;;1.77;;
77872;SDS011;67068;52.116;4.440;2023-02-17T16:37:00;10.85;;;1.88;;
77872;SDS011;67068;52.116;4.440;2023-02-17T16:39:26;10.98;;;1.70;;
77872;SDS011;67068;52.116;4.440;2023-02-17T16:41:51;11.13;;;2.03;;
77872;SDS011;67068;52.116;4.440;2023-02-17T16:44:17;9.18;;;1.85;;
77872;SDS011;67068;52.116;4.440;2023-02-17T16:46:45;11.95;;;1.92;;